New Providence, Iowa
Current Conditions -  °F | °C
As of 2:15 AM on Monday 22 Dec 2014 (Local Time) from KIFA Reporting Station
Drizzle Drizzle  
Wind Chill: 30°   Ceiling: 400
Heat Index: 38°   Visibility: 2.5mi
Dew Point: 37°   Wind: 14mph
Humidity: 95%   Direction: 140°SE
Pressure: 29.72"   Gusts: 22mph
Location:  42.28°N, 93.17°W
Report Text: KIFA 220815Z AUTO 14012G19KT 2 1/2SM DZ OVC004 04/03 A2972 RMK AO2 T00350028
Loading
Personal Weather Stations






























Interactive Weather Map New forecast layout! Learn more

10-Day Weather Forecast

Advertisements
Track Severe Weather on mobile